Observation data for Northfield on 11/10/2019      Previous  Date       Current Mesonet Observations  Soil Data  Daily Summary Page  Observations in Plain Language
KNOR 100600Z 25005KT 10/07 A3006 RMK A01 T00990065  RH  081%=      5-min Rain = 0
KNOR 100605Z 24005KT 10/07 A3006 RMK A01 T01010065  RH  081%=      5-min Rain = 0
KNOR 100610Z 24004KT 10/07 A3006 RMK A01 T01000066  RH  081%=      5-min Rain = 0
KNOR 100615Z 23005KT 10/07 A3006 RMK A01 T01000066  RH  081%=      5-min Rain = 0
KNOR 100620Z 23005KT 10/06 A3006 RMK A01 T00960064  RH  083%=      5-min Rain = 0
KNOR 100625Z 24005KT 09/06 A3006 RMK A01 T00940063  RH  083%=      5-min Rain = 0
KNOR 100630Z 24005KT 09/07 A3006 RMK A01 T00940065  RH  084%=      5-min Rain = 0
KNOR 100635Z 24006KT 10/07 A3006 RMK A01 T00950066  RH  084%=      5-min Rain = 0
KNOR 100640Z 24006KT 09/07 A3006 RMK A01 T00930065  RH  084%=      5-min Rain = 0
KNOR 100645Z 24006KT 09/06 A3006 RMK A01 T00900063  RH  085%=      5-min Rain = 0
KNOR 100650Z 24006KT 09/06 A3006 RMK A01 T00890064  RH  086%=      5-min Rain = 0
KNOR 100655Z 24005KT 09/07 A3005 RMK A01 T00900065  RH  086%=      5-min Rain = 0
KNOR 100700Z 24006KT 09/07 A3005 RMK A01 T00900065  RH  086%=      5-min Rain = 0
KNOR 100705Z 24007KT 09/07 A3005 RMK A01 T00900065  RH  086%=      5-min Rain = 0
KNOR 100710Z 23006KT 09/07 A3005 RMK A01 T00890065  RH  087%=      5-min Rain = 0
KNOR 100715Z 23006KT 09/06 A3005 RMK A01 T00880064  RH  087%=      5-min Rain = 0
KNOR 100720Z 23006KT 09/06 A3005 RMK A01 T00860064  RH  088%=      5-min Rain = 0
KNOR 100725Z 23007KT 09/06 A3005 RMK A01 T00850064  RH  089%=      5-min Rain = 0
KNOR 100730Z 23006KT 08/06 A3005 RMK A01 T00840064  RH  089%=      5-min Rain = 0
KNOR 100735Z 22006KT 08/06 A3005 RMK A01 T00830064  RH  090%=      5-min Rain = 0
KNOR 100740Z 22007KT 08/07 A3005 RMK A01 T00840065  RH  090%=      5-min Rain = 0
KNOR 100745Z 23007KT 08/07 A3004 RMK A01 T00840065  RH  090%=      5-min Rain = 0
KNOR 100750Z 23007KT 09/07 A3004 RMK A01 T00850066  RH  090%=      5-min Rain = 0
KNOR 100755Z 23007KT 09/07 A3004 RMK A01 T00850066  RH  090%=      5-min Rain = 0
KNOR 100800Z 23007KT 09/07 A3004 RMK A01 T00850066  RH  090%=      5-min Rain = 0
KNOR 100805Z 24007KT 09/07 A3004 RMK A01 T00860067  RH  090%=      5-min Rain = 0
KNOR 100810Z 23007KT 09/07 A3004 RMK A01 T00870067  RH  090%=      5-min Rain = 0
KNOR 100815Z 23006KT 09/07 A3004 RMK A01 T00870067  RH  090%=      5-min Rain = 0
KNOR 100820Z 24006KT 09/07 A3004 RMK A01 T00860067  RH  090%=      5-min Rain = 0
KNOR 100825Z 24006KT 09/07 A3003 RMK A01 T00850066  RH  090%=      5-min Rain = 0
KNOR 100830Z 24007KT 09/07 A3003 RMK A01 T00850066  RH  091%=      5-min Rain = 0
KNOR 100835Z 23007KT 08/07 A3003 RMK A01 T00840066  RH  091%=      5-min Rain = 0
KNOR 100840Z 23007KT 09/07 A3003 RMK A01 T00850067  RH  091%=      5-min Rain = 0
KNOR 100845Z 23008KT 08/07 A3003 RMK A01 T00840067  RH  091%=      5-min Rain = 0
KNOR 100850Z 23007KT 09/07 A3002 RMK A01 T00850067  RH  091%=      5-min Rain = 0
KNOR 100855Z 22007KT 08/07 A3002 RMK A01 T00840067  RH  091%=      5-min Rain = 0
KNOR 100900Z 22007KT 09/07 A3002 RMK A01 T00850067  RH  091%=      5-min Rain = 0
KNOR 100905Z 22006KT 09/07 A3002 RMK A01 T00850067  RH  091%=      5-min Rain = 0
KNOR 100910Z 22006KT 09/07 A3002 RMK A01 T00850066  RH  090%=      5-min Rain = 0
KNOR 100915Z 23006KT 09/07 A3002 RMK A01 T00850067  RH  090%=      5-min Rain = 0
KNOR 100920Z 23005KT 09/07 A3002 RMK A01 T00870068  RH  090%=      5-min Rain = 0
KNOR 100925Z 23005KT 09/07 A3002 RMK A01 T00870068  RH  090%=      5-min Rain = 0
KNOR 100930Z 23006KT 09/07 A3002 RMK A01 T00890069  RH  089%=      5-min Rain = 0
KNOR 100935Z 23006KT 09/07 A3002 RMK A01 T00880067  RH  089%=      5-min Rain = 0
KNOR 100940Z 22006KT 09/07 A3002 RMK A01 T00860066  RH  089%=      5-min Rain = 0
KNOR 100945Z 22007KT 09/07 A3001 RMK A01 T00870067  RH  090%=      5-min Rain = 0
KNOR 100950Z 22006KT 09/07 A3001 RMK A01 T00890069  RH  089%=      5-min Rain = 0
KNOR 100955Z 23006KT 09/07 A3001 RMK A01 T00900069  RH  089%=      5-min Rain = 0
KNOR 101000Z 23007KT 09/07 A3001 RMK A01 T00910069  RH  088%=      5-min Rain = 0
KNOR 101005Z 23007KT 09/07 A3001 RMK A01 T00900068  RH  088%=      5-min Rain = 0
KNOR 101010Z 23007KT 09/07 A3001 RMK A01 T00900068  RH  088%=      5-min Rain = 0
KNOR 101015Z 23007KT 09/07 A3001 RMK A01 T00910069  RH  088%=      5-min Rain = 0
KNOR 101020Z 22007KT 09/07 A3001 RMK A01 T00940071  RH  087%=      5-min Rain = 0
KNOR 101025Z 22007KT 10/07 A3001 RMK A01 T00950071  RH  087%=      5-min Rain = 0
KNOR 101030Z 21007KT 09/07 A3001 RMK A01 T00930069  RH  087%=      5-min Rain = 0
KNOR 101035Z 21008KT 09/07 A30 RMK A01 T00910069  RH  088%=      5-min Rain = 0
KNOR 101040Z 21009KT 10/07 A30 RMK A01 T00950073  RH  088%=      5-min Rain = 0
KNOR 101045Z 20008KT 10/07 A30 RMK A01 T00990074  RH  087%=      5-min Rain = 0
KNOR 101050Z 20007KT 10/07 A30 RMK A01 T01000074  RH  086%=      5-min Rain = 0
KNOR 101055Z 21007KT 10/07 A30 RMK A01 T01000074  RH  086%=      5-min Rain = 0
KNOR 101100Z 21008KT 10/07 A30 RMK A01 T01010073  RH  085%=      5-min Rain = 0
KNOR 101105Z 21008KT 10/07 A30 RMK A01 T01020074  RH  085%=      5-min Rain = 0
KNOR 101110Z 20008KT 10/08 A30 RMK A01 T01040075  RH  085%=      5-min Rain = 0
KNOR 101115Z 20009KT 10/08 A30 RMK A01 T01040075  RH  085%=      5-min Rain = 0
KNOR 101120Z 20009KT 10/07 A30 RMK A01 T01020074  RH  085%=      5-min Rain = 0
KNOR 101125Z 19009KT 10/07 A30 RMK A01 T00990072  RH  086%=      5-min Rain = 0
KNOR 101130Z 19009KT 10/07 A30 RMK A01 T00970071  RH  086%=      5-min Rain = 0
KNOR 101135Z 19008KT 10/07 A30 RMK A01 T00960071  RH  086%=      5-min Rain = 0
KNOR 101140Z 19008KT 10/07 A30 RMK A01 T00950071  RH  087%=      5-min Rain = 0
KNOR 101145Z 19008KT 09/07 A30 RMK A01 T00940070  RH  087%=      5-min Rain = 0
KNOR 101150Z 18008KT 09/07 A30 RMK A01 T00930070  RH  087%=      5-min Rain = 0
KNOR 101155Z 18008KT 09/07 A30 RMK A01 T00940071  RH  087%=      5-min Rain = 0
KNOR 101200Z 18007KT 10/07 A30 RMK A01 T00960071  RH  087%=      5-min Rain = 0
KNOR 101205Z 17006KT 09/07 A30 RMK A01 T00920068  RH  087%=      5-min Rain = 0
KNOR 101210Z 18006KT 09/07 A30 RMK A01 T00890067  RH  088%=      5-min Rain = 0
KNOR 101215Z 18006KT 09/07 A30 RMK A01 T00880066  RH  088%=      5-min Rain = 0
KNOR 101220Z 18006KT 09/07 A30 RMK A01 T00860065  RH  089%=      5-min Rain = 0
KNOR 101225Z 17005KT 08/06 A30 RMK A01 T00840064  RH  089%=      5-min Rain = 0
KNOR 101230Z 18006KT 08/06 A2999 RMK A01 T00800061  RH  090%=      5-min Rain = 0
KNOR 101235Z 18007KT 08/06 A2999 RMK A01 T00810063  RH  091%=      5-min Rain = 0
KNOR 101240Z 18007KT 08/06 A2999 RMK A01 T00820064  RH  091%=      5-min Rain = 0
KNOR 101245Z 18006KT 08/06 A2999 RMK A01 T00810064  RH  091%=      5-min Rain = 0
KNOR 101250Z 18006KT 08/06 A2999 RMK A01 T00800063  RH  091%=      5-min Rain = 0
KNOR 101255Z 19006KT 08/06 A2999 RMK A01 T00790062  RH  091%=      5-min Rain = 0
KNOR 101300Z 19006KT 08/06 A2999 RMK A01 T00790062  RH  091%=      5-min Rain = 0
KNOR 101305Z 18007KT 08/06 A2999 RMK A01 T00800064  RH  092%=      5-min Rain = 0
KNOR 101310Z 18007KT 08/07 A2999 RMK A01 T00830066  RH  092%=      5-min Rain = 0
KNOR 101315Z 19007KT 09/07 A2999 RMK A01 T00850068  RH  091%=      5-min Rain = 0
KNOR 101320Z 19008KT 09/07 A2999 RMK A01 T00870069  RH  091%=      5-min Rain = 0
KNOR 101325Z 19008KT 09/07 A2999 RMK A01 T00880069  RH  090%=      5-min Rain = 0
KNOR 101330Z 20007KT 09/07 A2999 RMK A01 T00880069  RH  090%=      5-min Rain = 0
KNOR 101335Z 19007KT 09/07 A2999 RMK A01 T00890070  RH  090%=      5-min Rain = 0
KNOR 101340Z 20008KT 09/07 A2999 RMK A01 T00910072  RH  090%=      5-min Rain = 0
KNOR 101345Z 20008KT 10/08 A2999 RMK A01 T00950075  RH  089%=      5-min Rain = 0
KNOR 101350Z 20008KT 10/08 A2999 RMK A01 T00990077  RH  088%=      5-min Rain = 0
KNOR 101355Z 20007KT 10/08 A2999 RMK A01 T01010078  RH  088%=      5-min Rain = 0
KNOR 101400Z 20007KT 10/08 A2999 RMK A01 T01040079  RH  087%=      5-min Rain = 0
KNOR 101405Z 20006KT 11/08 A2999 RMK A01 T01070081  RH  087%=      5-min Rain = 0
KNOR 101410Z 20006KT 11/08 A2999 RMK A01 T01110084  RH  086%=      5-min Rain = 0
KNOR 101415Z 21005KT 12/09 A2999 RMK A01 T01160087  RH  085%=      5-min Rain = 0
KNOR 101420Z 21005KT 12/09 A2999 RMK A01 T01210089  RH  083%=      5-min Rain = 0
KNOR 101425Z 22005KT 12/09 A2999 RMK A01 T01240089  RH  082%=      5-min Rain = 0
KNOR 101430Z 22005KT 13/09 A2999 RMK A01 T01260090  RH  081%=      5-min Rain = 0
KNOR 101435Z 22004KT 13/09 A2999 RMK A01 T01290092  RH  080%=      5-min Rain = 0
KNOR 101440Z 21005KT 13/09 A2999 RMK A01 T01340094  RH  079%=      5-min Rain = 0
KNOR 101445Z 22006KT 14/09 A2999 RMK A01 T01350093  RH  078%=      5-min Rain = 0
KNOR 101450Z 22006KT 14/09 A2999 RMK A01 T01370094  RH  078%=      5-min Rain = 0
KNOR 101455Z 23006KT 14/10 A2999 RMK A01 T01390095  RH  077%=      5-min Rain = 0
KNOR 101500Z 24005KT 14/10 A2999 RMK A01 T01430099  RH  077%=      5-min Rain = 0
KNOR 101505Z 23005KT 15/10 A2999 RMK A01 T01500100  RH  075%=      5-min Rain = 0
KNOR 101510Z 24006KT 15/10 A2999 RMK A01 T01540101  RH  073%=      5-min Rain = 0
KNOR 101515Z 24007KT 16/10 A2999 RMK A01 T01580101  RH  071%=      5-min Rain = 0
KNOR 101520Z 24007KT 16/10 A2999 RMK A01 T01600100  RH  070%=      5-min Rain = 0
KNOR 101525Z 23007G12KT 16/10 A2998 RMK A01 T01630101  RH  069%=      5-min Rain = 0
KNOR 101530Z 24007KT 17/10 A2998 RMK A01 T01660101  RH  068%=      5-min Rain = 0
KNOR 101535Z 23008KT 17/10 A2998 RMK A01 T01700101  RH  066%=      5-min Rain = 0
KNOR 101540Z 23011KT 18/10 A2997 RMK A01 T01760101  RH  063%=      5-min Rain = 0
KNOR 101545Z 23011KT 18/10 A2997 RMK A01 T01790100  RH  062%=      5-min Rain = 0
KNOR 101550Z 22011KT 19/10 A2997 RMK A01 T01860101  RH  060%=      5-min Rain = 0
KNOR 101555Z 23011G16KT 19/10 A2996 RMK A01 T01880102  RH  059%=      5-min Rain = 0
KNOR 101600Z 23013KT 19/10 A2996 RMK A01 T01900101  RH  058%=      5-min Rain = 0
KNOR 101605Z 24012KT 19/10 A2996 RMK A01 T01920102  RH  058%=      5-min Rain = 0
KNOR 101610Z 23011KT 20/10 A2996 RMK A01 T01970104  RH  057%=      5-min Rain = 0
KNOR 101615Z 23010KT 20/11 A2996 RMK A01 T02030105  RH  055%=      5-min Rain = 0
KNOR 101620Z 23010KT 21/11 A2996 RMK A01 T02080106  RH  054%=      5-min Rain = 0
KNOR 101625Z 22013G19KT 21/11 A2996 RMK A01 T02080106  RH  054%=      5-min Rain = 0
KNOR 101630Z 23012G20KT 21/11 A2996 RMK A01 T02110107  RH  053%=      5-min Rain = 0
KNOR 101635Z 22012G17KT 21/11 A2995 RMK A01 T02130107  RH  052%=      5-min Rain = 0
KNOR 101640Z 22013KT 22/11 A2995 RMK A01 T02150107  RH  052%=      5-min Rain = 0
KNOR 101645Z 23014KT 22/11 A2995 RMK A01 T02160107  RH  052%=      5-min Rain = 0
KNOR 101650Z 23011G16KT 22/11 A2995 RMK A01 T02170107  RH  051%=      5-min Rain = 0
KNOR 101655Z 23010KT 23/11 A2995 RMK A01 T02260108  RH  049%=      5-min Rain = 0
KNOR 101700Z 23011KT 23/11 A2995 RMK A01 T02250106  RH  048%=      5-min Rain = 0
KNOR 101705Z 23013KT 22/11 A2995 RMK A01 T02230105  RH  049%=      5-min Rain = 0
KNOR 101710Z 23011KT 22/11 A2995 RMK A01 T02240105  RH  048%=      5-min Rain = 0
KNOR 101715Z 23010KT 23/11 A2995 RMK A01 T02250105  RH  048%=      5-min Rain = 0
KNOR 101720Z 22009KT 23/11 A2994 RMK A01 T02280106  RH  048%=      5-min Rain = 0
KNOR 101725Z 24010KT 23/11 A2994 RMK A01 T02300105  RH  047%=      5-min Rain = 0
KNOR 101730Z 23011KT 23/10 A2994 RMK A01 T02300104  RH  046%=      5-min Rain = 0
KNOR 101735Z 24011KT 23/10 A2994 RMK A01 T02300104  RH  046%=      5-min Rain = 0
KNOR 101740Z 24011KT 23/10 A2993 RMK A01 T02340104  RH  045%=      5-min Rain = 0
KNOR 101745Z 25011G16KT 24/10 A2993 RMK A01 T02370103  RH  044%=      5-min Rain = 0
KNOR 101750Z 24008KT 24/11 A2993 RMK A01 T02430105  RH  043%=      5-min Rain = 0
KNOR 101755Z 23009G15KT 24/10 A2992 RMK A01 T02440104  RH  043%=      5-min Rain = 0
KNOR 101800Z 23010KT 25/10 A2992 RMK A01 T02490102  RH  041%=      5-min Rain = 0
KNOR 101805Z 22011KT 25/10 A2991 RMK A01 T02490100  RH  040%=      5-min Rain = 0
KNOR 101810Z 22010KT 25/10 A2991 RMK A01 T02490100  RH  040%=      5-min Rain = 0
KNOR 101815Z 22010G15KT 25/10 A2991 RMK A01 T02490098  RH  040%=      5-min Rain = 0
KNOR 101820Z 23010G15KT 26/09 A299 RMK A01 T02550090  RH  036%=      5-min Rain = 0
KNOR 101825Z 22011KT 26/08 A299 RMK A01 T02570083  RH  034%=      5-min Rain = 0
KNOR 101830Z 22009KT 26/08 A299 RMK A01 T02600082  RH  033%=      5-min Rain = 0
KNOR 101835Z 24010KT 26/08 A2989 RMK A01 T02630076  RH  031%=      5-min Rain = 0
KNOR 101840Z 23010KT 27/07 A2989 RMK A01 T02670074  RH  030%=      5-min Rain = 0
KNOR 101845Z 23011G18KT 26/07 A2989 RMK A01 T02630068  RH  030%=      5-min Rain = 0
KNOR 101850Z 23011KT 27/06 A2988 RMK A01 T02650063  RH  028%=      5-min Rain = 0
KNOR 101855Z 25010G16KT 26/06 A2987 RMK A01 T02600063  RH  029%=      5-min Rain = 0
KNOR 101900Z 23010KT 27/06 A2987 RMK A01 T02650063  RH  028%=      5-min Rain = 0
KNOR 101905Z 23011G16KT 27/07 A2986 RMK A01 T02680066  RH  028%=      5-min Rain = 0
KNOR 101910Z 24011KT 27/06 A2986 RMK A01 T02680064  RH  028%=      5-min Rain = 0
KNOR 101915Z 23009KT 27/06 A2986 RMK A01 T02660063  RH  028%=      5-min Rain = 0
KNOR 101920Z 24011KT 27/07 A2986 RMK A01 T02710067  RH  028%=      5-min Rain = 0
KNOR 101925Z 24011KT 27/07 A2985 RMK A01 T02710069  RH  029%=      5-min Rain = 0
KNOR 101930Z 25011KT 27/07 A2985 RMK A01 T02690066  RH  028%=      5-min Rain = 0
KNOR 101935Z 23010G16KT 27/06 A2985 RMK A01 T02660063  RH  028%=      5-min Rain = 0
KNOR 101940Z 22011KT 27/06 A2985 RMK A01 T02680062  RH  028%=      5-min Rain = 0
KNOR 101945Z 22010KT 27/06 A2984 RMK A01 T02670063  RH  028%=      5-min Rain = 0
KNOR 101950Z 22012KT 27/06 A2984 RMK A01 T02700062  RH  027%=      5-min Rain = 0
KNOR 101955Z 22010G15KT 27/06 A2984 RMK A01 T02710062  RH  027%=      5-min Rain = 0
KNOR 102000Z 23011KT 27/06 A2984 RMK A01 T02680061  RH  027%=      5-min Rain = 0
KNOR 102005Z 22011KT 28/07 A2983 RMK A01 T02750065  RH  027%=      5-min Rain = 0
KNOR 102010Z 21011G16KT 28/07 A2983 RMK A01 T02750066  RH  027%=      5-min Rain = 0
KNOR 102015Z 22010G15KT 28/06 A2983 RMK A01 T02760062  RH  026%=      5-min Rain = 0
KNOR 102020Z 21010KT 28/07 A2983 RMK A01 T02780072  RH  028%=      5-min Rain = 0
KNOR 102025Z 21009KT 28/07 A2982 RMK A01 T02760071  RH  028%=      5-min Rain = 0
KNOR 102030Z 22010G16KT 28/07 A2982 RMK A01 T02800067  RH  027%=      5-min Rain = 0
KNOR 102035Z 23011G17KT 28/07 A2982 RMK A01 T02800065  RH  026%=      5-min Rain = 0
KNOR 102040Z 20010G16KT 28/07 A2982 RMK A01 T02840072  RH  027%=      5-min Rain = 0
KNOR 102045Z 21011G17KT 28/07 A2982 RMK A01 T02820072  RH  027%=      5-min Rain = 0
KNOR 102050Z 22011G16KT 28/07 A2982 RMK A01 T02810070  RH  027%=      5-min Rain = 0
KNOR 102055Z 20011G17KT 28/08 A2982 RMK A01 T02770078  RH  029%=      5-min Rain = 0
KNOR 102100Z 21013KT 28/08 A2981 RMK A01 T02750083  RH  031%=      5-min Rain = 0
KNOR 102105Z 20012G17KT 27/09 A2981 RMK A01 T02740085  RH  031%=      5-min Rain = 0
KNOR 102110Z 20010KT 28/09 A2981 RMK A01 T02760085  RH  031%=      5-min Rain = 0
KNOR 102115Z 20013G20KT 27/09 A2981 RMK A01 T02740085  RH  031%=      5-min Rain = 0
KNOR 102120Z 20012KT 27/09 A2981 RMK A01 T02710085  RH  032%=      5-min Rain = 0
KNOR 102125Z 19012KT 27/09 A2981 RMK A01 T02730089  RH  032%=      5-min Rain = 0
KNOR 102130Z 20012G17KT 27/09 A2981 RMK A01 T02720094  RH  034%=      5-min Rain = 0
KNOR 102135Z 20013G19KT 27/10 A2981 RMK A01 T02700097  RH  035%=      5-min Rain = 0
KNOR 102140Z 19013G19KT 27/10 A2981 RMK A01 T02670097  RH  035%=      5-min Rain = 0
KNOR 102145Z 19012G18KT 27/10 A2981 RMK A01 T02650098  RH  036%=      5-min Rain = 0
KNOR 102150Z 20013KT 26/10 A298 RMK A01 T02640100  RH  037%=      5-min Rain = 0
KNOR 102155Z 19011G16KT 26/10 A298 RMK A01 T02620101  RH  038%=      5-min Rain = 0
KNOR 102200Z 19012KT 26/10 A298 RMK A01 T02600102  RH  038%=      5-min Rain = 0
KNOR 102205Z 19013KT 26/10 A298 RMK A01 T02590103  RH  039%=      5-min Rain = 0
KNOR 102210Z 20014G19KT 26/10 A2979 RMK A01 T02630102  RH  038%=      5-min Rain = 0
KNOR 102215Z 19013KT 26/10 A2979 RMK A01 T02620100  RH  037%=      5-min Rain = 0
KNOR 102220Z 19012G18KT 26/10 A2979 RMK A01 T02590102  RH  039%=      5-min Rain = 0
KNOR 102225Z 19012G17KT 26/10 A2979 RMK A01 T02590103  RH  039%=      5-min Rain = 0
KNOR 102230Z 19014KT 26/10 A2979 RMK A01 T02600102  RH  038%=      5-min Rain = 0
KNOR 102235Z 19012G17KT 26/10 A2979 RMK A01 T02620103  RH  038%=      5-min Rain = 0
KNOR 102240Z 20014KT 26/10 A2979 RMK A01 T02610103  RH  038%=      5-min Rain = 0
KNOR 102245Z 19015G21KT 26/10 A2979 RMK A01 T02600104  RH  039%=      5-min Rain = 0
KNOR 102250Z 19015G21KT 26/11 A2979 RMK A01 T02570105  RH  040%=      5-min Rain = 0
KNOR 102255Z 19015G21KT 26/11 A2978 RMK A01 T02550106  RH  041%=      5-min Rain = 0
KNOR 102300Z 19011G16KT 25/11 A2978 RMK A01 T02530107  RH  041%=      5-min Rain = 0
KNOR 102305Z 19013KT 25/11 A2978 RMK A01 T02510108  RH  042%=      5-min Rain = 0
KNOR 102310Z 19013KT 25/11 A2978 RMK A01 T02480109  RH  043%=      5-min Rain = 0
KNOR 102315Z 19009KT 24/11 A2979 RMK A01 T02430110  RH  045%=      5-min Rain = 0
KNOR 102320Z 18009KT 24/11 A2979 RMK A01 T02400110  RH  046%=      5-min Rain = 0
KNOR 102325Z 18009KT 24/11 A2979 RMK A01 T02370112  RH  047%=      5-min Rain = 0
KNOR 102330Z 18010KT 23/11 A2978 RMK A01 T02340114  RH  048%=      5-min Rain = 0
KNOR 102335Z 18009KT 23/11 A2979 RMK A01 T02310114  RH  049%=      5-min Rain = 0
KNOR 102340Z 18009G14KT 23/12 A2979 RMK A01 T02290115  RH  050%=      5-min Rain = 0
KNOR 102345Z 19009KT 23/12 A2979 RMK A01 T02280115  RH  051%=      5-min Rain = 0
KNOR 102350Z 19010KT 23/12 A2979 RMK A01 T02270116  RH  051%=      5-min Rain = 0
KNOR 102355Z 19009KT 23/12 A2979 RMK A01 T02250116  RH  052%=      5-min Rain = 0
KNOR 110000Z 18009KT 22/12 A2978 RMK A01 T02230116  RH  053%=      5-min Rain = 0
KNOR 110005Z 18009KT 22/12 A2978 RMK A01 T02210117  RH  053%=      5-min Rain = 0
KNOR 110010Z 18009KT 22/12 A2978 RMK A01 T02190117  RH  054%=      5-min Rain = 0
KNOR 110015Z 18009KT 22/12 A2978 RMK A01 T02180118  RH  055%=      5-min Rain = 0
KNOR 110020Z 17008KT 22/12 A2978 RMK A01 T02150118  RH  056%=      5-min Rain = 0
KNOR 110025Z 17009KT 21/12 A2978 RMK A01 T02140118  RH  056%=      5-min Rain = 0
KNOR 110030Z 17009KT 21/12 A2978 RMK A01 T02130119  RH  057%=      5-min Rain = 0
KNOR 110035Z 16009KT 21/12 A2978 RMK A01 T02100118  RH  058%=      5-min Rain = 0
KNOR 110040Z 16010KT 21/12 A2978 RMK A01 T02060118  RH  059%=      5-min Rain = 0
KNOR 110045Z 17010KT 21/12 A2978 RMK A01 T02080119  RH  059%=      5-min Rain = 0
KNOR 110050Z 17011KT 21/12 A2978 RMK A01 T02070120  RH  059%=      5-min Rain = 0
KNOR 110055Z 17011KT 21/12 A2978 RMK A01 T02070120  RH  060%=      5-min Rain = 0
KNOR 110100Z 17012KT 21/12 A2978 RMK A01 T02060121  RH  060%=      5-min Rain = 0
KNOR 110105Z 17012KT 21/12 A2978 RMK A01 T02050122  RH  061%=      5-min Rain = 0
KNOR 110110Z 17012KT 20/12 A2978 RMK A01 T02030122  RH  062%=      5-min Rain = 0
KNOR 110115Z 18011KT 20/12 A2978 RMK A01 T02010123  RH  063%=      5-min Rain = 0
KNOR 110120Z 18010KT 20/12 A2978 RMK A01 T01990123  RH  064%=      5-min Rain = 0
KNOR 110125Z 18011G16KT 20/12 A2978 RMK A01 T01970124  RH  065%=      5-min Rain = 0
KNOR 110130Z 18011KT 20/12 A2978 RMK A01 T01960124  RH  066%=      5-min Rain = 0
KNOR 110135Z 18011KT 19/12 A2978 RMK A01 T01940124  RH  066%=      5-min Rain = 0
KNOR 110140Z 18011KT 19/13 A2979 RMK A01 T01930125  RH  067%=      5-min Rain = 0
KNOR 110145Z 18011G16KT 19/13 A2978 RMK A01 T01930126  RH  067%=      5-min Rain = 0
KNOR 110150Z 18011KT 19/13 A2979 RMK A01 T01930126  RH  068%=      5-min Rain = 0
KNOR 110155Z 18010G15KT 19/13 A2979 RMK A01 T01920126  RH  068%=      5-min Rain = 0
KNOR 110200Z 18011KT 19/13 A2978 RMK A01 T01920127  RH  069%=      5-min Rain = 0
KNOR 110205Z 18011KT 19/13 A2978 RMK A01 T01930128  RH  068%=      5-min Rain = 0
KNOR 110210Z 18010KT 19/13 A2979 RMK A01 T01930128  RH  069%=      5-min Rain = 0
KNOR 110215Z 19010KT 19/13 A2979 RMK A01 T01910128  RH  069%=      5-min Rain = 0
KNOR 110220Z 19010KT 19/13 A2979 RMK A01 T01920129  RH  069%=      5-min Rain = 0
KNOR 110225Z 19011KT 19/13 A2979 RMK A01 T01920129  RH  070%=      5-min Rain = 0
KNOR 110230Z 19010KT 19/13 A2979 RMK A01 T01910129  RH  070%=      5-min Rain = 0
KNOR 110235Z 19011KT 19/13 A2978 RMK A01 T01920130  RH  070%=      5-min Rain = 0
KNOR 110240Z 19010KT 19/13 A2978 RMK A01 T01910130  RH  070%=      5-min Rain = 0
KNOR 110245Z 19011KT 19/13 A2978 RMK A01 T01900130  RH  071%=      5-min Rain = 0
KNOR 110250Z 19010KT 19/13 A2978 RMK A01 T01880130  RH  071%=      5-min Rain = 0
KNOR 110255Z 19011KT 19/13 A2978 RMK A01 T01890130  RH  072%=      5-min Rain = 0
KNOR 110300Z 19011KT 19/13 A2978 RMK A01 T01880130  RH  072%=      5-min Rain = 0
KNOR 110305Z 19010KT 19/13 A2978 RMK A01 T01860130  RH  072%=      5-min Rain = 0
KNOR 110310Z 19011KT 19/13 A2978 RMK A01 T01860130  RH  073%=      5-min Rain = 0
KNOR 110315Z 19010KT 19/13 A2977 RMK A01 T01850130  RH  073%=      5-min Rain = 0
KNOR 110320Z 19010G15KT 18/13 A2977 RMK A01 T01840130  RH  074%=      5-min Rain = 0
KNOR 110325Z 19010KT 18/13 A2977 RMK A01 T01840130  RH  074%=      5-min Rain = 0
KNOR 110330Z 20010G15KT 18/13 A2977 RMK A01 T01840130  RH  074%=      5-min Rain = 0
KNOR 110335Z 19010KT 18/13 A2977 RMK A01 T01820130  RH  075%=      5-min Rain = 0
KNOR 110340Z 19010KT 18/13 A2977 RMK A01 T01800130  RH  075%=      5-min Rain = 0
KNOR 110345Z 20010KT 18/13 A2977 RMK A01 T01790130  RH  076%=      5-min Rain = 0
KNOR 110350Z 20009KT 18/13 A2977 RMK A01 T01760129  RH  077%=      5-min Rain = 0
KNOR 110355Z 20009KT 18/13 A2977 RMK A01 T01750129  RH  077%=      5-min Rain = 0
KNOR 110400Z 20009KT 18/13 A2977 RMK A01 T01750129  RH  077%=      5-min Rain = 0
KNOR 110405Z 21009KT 18/13 A2978 RMK A01 T01750129  RH  077%=      5-min Rain = 0
KNOR 110410Z 21008KT 17/13 A2978 RMK A01 T01730128  RH  078%=      5-min Rain = 0
KNOR 110415Z 21007KT 17/13 A2978 RMK A01 T01700127  RH  079%=      5-min Rain = 0
KNOR 110420Z 23006KT 17/13 A2978 RMK A01 T01680126  RH  080%=      5-min Rain = 0
KNOR 110425Z 25007KT 16/13 A2979 RMK A01 T01630125  RH  081%=      5-min Rain = 0
KNOR 110430Z 24007KT 16/13 A2979 RMK A01 T01620125  RH  082%=      5-min Rain = 0
KNOR 110435Z 31006KT 16/12 A2979 RMK A01 T01580122  RH  082%=      5-min Rain = 0
KNOR 110440Z 29006KT 16/12 A2979 RMK A01 T01560123  RH  084%=      5-min Rain = 0
KNOR 110445Z 28006KT 15/12 A2979 RMK A01 T01530121  RH  084%=      5-min Rain = 0
KNOR 110450Z 31007KT 15/12 A2979 RMK A01 T01500120  RH  085%=      5-min Rain = 0
KNOR 110455Z 30007KT 15/12 A2979 RMK A01 T01490119  RH  085%=      5-min Rain = 0
KNOR 110500Z 29008KT 15/12 A2979 RMK A01 T01490118  RH  085%=      5-min Rain = 0
KNOR 110505Z 28007KT 15/12 A2979 RMK A01 T01470116  RH  084%=      5-min Rain = 0
KNOR 110510Z 26008G14KT 15/11 A2979 RMK A01 T01460112  RH  083%=      5-min Rain = 0
KNOR 110515Z 25011KT 16/10 A2979 RMK A01 T01620102  RH  070%=      5-min Rain = 0
KNOR 110520Z 24011KT 17/10 A2979 RMK A01 T01660097  RH  066%=      5-min Rain = 0
KNOR 110525Z 25011KT 17/09 A2979 RMK A01 T01650092  RH  064%=      5-min Rain = 0
KNOR 110530Z 25011KT 17/09 A2979 RMK A01 T01650087  RH  062%=      5-min Rain = 0
KNOR 110535Z 25011KT 17/08 A2979 RMK A01 T01670083  RH  059%=      5-min Rain = 0
KNOR 110540Z 25010KT 17/08 A2979 RMK A01 T01650083  RH  060%=      5-min Rain = 0
KNOR 110545Z 26010KT 16/08 A2979 RMK A01 T01620083  RH  061%=      5-min Rain = 0
KNOR 110550Z 27008KT 15/08 A298 RMK A01 T01540084  RH  065%=      5-min Rain = 0
KNOR 110555Z 26009KT 15/08 A298 RMK A01 T01480084  RH  068%=      5-min Rain = 0

Page generated in 0.017 seconds.